Ardsley, New York
Current Conditions -  °F | °C
As of 12:56 AM on Monday 26 Jan 2015 (Local Time) from KHPN Reporting Station
Broken Clouds Broken Clouds  
Wind Chill:   Ceiling: 9000
Heat Index: 21°   Visibility: 10mi
Dew Point:   Wind: 12mph
Humidity: 42%   Direction: 10°N
Pressure: 29.98"   Gusts: NA
Location:  41.01°N, 73.84°W
Report Text: KHPN 260556Z 01010KT 10SM FEW070 BKN090 BKN110 M06/M17 A2998 RMK AO2 SLP163 T10611172 11011 21061 51008 $
Loading
Personal Weather Stations






























Interactive Weather Map New forecast layout! Learn more

10-Day Weather Forecast

Advertisements
Track Severe Weather on mobile